sensor_id;sensor_type;location;lat;lon;timestamp;P1;durP1;ratioP1;P2;durP2;ratioP2
71566;SDS011;59403;47.456;19.120;2023-02-26T00:01:27;4.15;;;2.33;;
71566;SDS011;59403;47.456;19.120;2023-02-26T00:03:55;6.87;;;2.33;;
71566;SDS011;59403;47.456;19.120;2023-02-26T00:06:26;5.68;;;3.35;;
71566;SDS011;59403;47.456;19.120;2023-02-26T00:08:55;4.82;;;2.47;;
71566;SDS011;59403;47.456;19.120;2023-02-26T00:11:22;5.25;;;2.20;;
71566;SDS011;59403;47.456;19.120;2023-02-26T00:13:49;4.72;;;2.30;;
71566;SDS011;59403;47.456;19.120;2023-02-26T00:16:20;3.40;;;2.27;;
71566;SDS011;59403;47.456;19.120;2023-02-26T00:18:51;4.15;;;2.72;;
71566;SDS011;59403;47.456;19.120;2023-02-26T00:21:19;4.25;;;2.33;;
71566;SDS011;59403;47.456;19.120;2023-02-26T00:23:47;4.90;;;2.62;;
71566;SDS011;59403;47.456;19.120;2023-02-26T00:26:16;3.58;;;2.37;;
71566;SDS011;59403;47.456;19.120;2023-02-26T00:28:43;4.83;;;2.50;;
71566;SDS011;59403;47.456;19.120;2023-02-26T00:31:11;5.50;;;2.75;;
71566;SDS011;59403;47.456;19.120;2023-02-26T00:33:40;5.82;;;3.03;;
71566;SDS011;59403;47.456;19.120;2023-02-26T00:36:14;5.78;;;3.00;;
71566;SDS011;59403;47.456;19.120;2023-02-26T00:38:48;5.05;;;3.22;;
71566;SDS011;59403;47.456;19.120;2023-02-26T00:41:29;6.30;;;3.00;;
71566;SDS011;59403;47.456;19.120;2023-02-26T00:43:56;5.03;;;2.97;;
71566;SDS011;59403;47.456;19.120;2023-02-26T00:46:25;4.80;;;2.80;;
71566;SDS011;59403;47.456;19.120;2023-02-26T00:49:02;4.03;;;2.50;;
71566;SDS011;59403;47.456;19.120;2023-02-26T00:51:36;5.07;;;3.20;;
71566;SDS011;59403;47.456;19.120;2023-02-26T00:54:11;4.87;;;2.50;;
71566;SDS011;59403;47.456;19.120;2023-02-26T00:56:45;6.87;;;3.20;;
71566;SDS011;59403;47.456;19.120;2023-02-26T00:59:12;4.20;;;2.90;;
71566;SDS011;59403;47.456;19.120;2023-02-26T01:01:39;5.32;;;3.00;;
71566;SDS011;59403;47.456;19.120;2023-02-26T01:04:06;5.65;;;3.05;;
71566;SDS011;59403;47.456;19.120;2023-02-26T01:06:34;5.90;;;3.13;;
71566;SDS011;59403;47.456;19.120;2023-02-26T01:09:09;5.47;;;2.97;;
71566;SDS011;59403;47.456;19.120;2023-02-26T01:11:41;4.72;;;2.75;;
71566;SDS011;59403;47.456;19.120;2023-02-26T01:14:10;5.12;;;2.70;;
71566;SDS011;59403;47.456;19.120;2023-02-26T01:16:39;6.03;;;3.05;;
71566;SDS011;59403;47.456;19.120;2023-02-26T01:19:14;4.57;;;2.50;;
71566;SDS011;59403;47.456;19.120;2023-02-26T01:21:51;6.90;;;3.20;;
71566;SDS011;59403;47.456;19.120;2023-02-26T01:24:22;6.72;;;3.22;;
71566;SDS011;59403;47.456;19.120;2023-02-26T01:26:51;5.32;;;3.05;;
71566;SDS011;59403;47.456;19.120;2023-02-26T01:29:20;4.90;;;2.65;;
71566;SDS011;59403;47.456;19.120;2023-02-26T01:31:48;3.93;;;2.37;;
71566;SDS011;59403;47.456;19.120;2023-02-26T01:34:21;4.30;;;2.83;;
71566;SDS011;59403;47.456;19.120;2023-02-26T01:36:55;4.82;;;3.03;;
71566;SDS011;59403;47.456;19.120;2023-02-26T01:39:28;4.15;;;2.50;;
71566;SDS011;59403;47.456;19.120;2023-02-26T01:42:03;4.00;;;2.80;;
71566;SDS011;59403;47.456;19.120;2023-02-26T01:44:40;4.43;;;2.70;;
71566;SDS011;59403;47.456;19.120;2023-02-26T01:47:17;4.28;;;2.67;;
71566;SDS011;59403;47.456;19.120;2023-02-26T01:49:49;5.43;;;3.15;;
71566;SDS011;59403;47.456;19.120;2023-02-26T01:55:26;4.40;;;2.55;;
71566;SDS011;59403;47.456;19.120;2023-02-26T01:57:55;4.93;;;2.40;;
71566;SDS011;59403;47.456;19.120;2023-02-26T02:00:26;4.15;;;2.53;;
71566;SDS011;59403;47.456;19.120;2023-02-26T02:05:31;4.62;;;2.75;;
71566;SDS011;59403;47.456;19.120;2023-02-26T02:08:11;4.85;;;2.50;;
71566;SDS011;59403;47.456;19.120;2023-02-26T02:10:40;4.00;;;2.47;;
71566;SDS011;59403;47.456;19.120;2023-02-26T02:13:11;4.70;;;2.78;;
71566;SDS011;59403;47.456;19.120;2023-02-26T02:15:50;4.82;;;2.87;;
71566;SDS011;59403;47.456;19.120;2023-02-26T02:18:28;4.32;;;2.75;;
71566;SDS011;59403;47.456;19.120;2023-02-26T02:21:16;5.03;;;3.08;;
71566;SDS011;59403;47.456;19.120;2023-02-26T02:23:54;5.30;;;2.73;;
71566;SDS011;59403;47.456;19.120;2023-02-26T02:26:33;5.43;;;2.80;;
71566;SDS011;59403;47.456;19.120;2023-02-26T02:32:17;4.90;;;2.90;;
71566;SDS011;59403;47.456;19.120;2023-02-26T02:34:47;5.05;;;2.62;;
71566;SDS011;59403;47.456;19.120;2023-02-26T02:37:19;5.33;;;2.73;;
71566;SDS011;59403;47.456;19.120;2023-02-26T02:39:54;4.32;;;2.75;;
71566;SDS011;59403;47.456;19.120;2023-02-26T02:42:26;5.10;;;3.05;;
71566;SDS011;59403;47.456;19.120;2023-02-26T02:44:59;5.43;;;2.90;;
71566;SDS011;59403;47.456;19.120;2023-02-26T02:47:31;6.60;;;3.30;;
71566;SDS011;59403;47.456;19.120;2023-02-26T02:50:02;4.73;;;2.83;;
71566;SDS011;59403;47.456;19.120;2023-02-26T02:52:35;5.93;;;3.20;;
71566;SDS011;59403;47.456;19.120;2023-02-26T02:55:07;5.55;;;3.10;;
71566;SDS011;59403;47.456;19.120;2023-02-26T02:57:42;5.55;;;3.10;;
71566;SDS011;59403;47.456;19.120;2023-02-26T03:00:12;6.18;;;3.20;;
71566;SDS011;59403;47.456;19.120;2023-02-26T03:02:46;4.13;;;3.00;;
71566;SDS011;59403;47.456;19.120;2023-02-26T03:05:16;5.97;;;3.40;;
71566;SDS011;59403;47.456;19.120;2023-02-26T03:07:44;4.60;;;2.83;;
71566;SDS011;59403;47.456;19.120;2023-02-26T03:10:14;5.57;;;3.05;;
71566;SDS011;59403;47.456;19.120;2023-02-26T03:12:42;5.80;;;3.17;;
71566;SDS011;59403;47.456;19.120;2023-02-26T03:15:09;5.23;;;3.33;;
71566;SDS011;59403;47.456;19.120;2023-02-26T03:17:39;5.57;;;3.28;;
71566;SDS011;59403;47.456;19.120;2023-02-26T03:20:19;5.40;;;3.55;;
71566;SDS011;59403;47.456;19.120;2023-02-26T03:22:52;6.00;;;3.72;;
71566;SDS011;59403;47.456;19.120;2023-02-26T03:25:28;7.55;;;3.62;;
71566;SDS011;59403;47.456;19.120;2023-02-26T03:28:03;5.87;;;3.63;;
71566;SDS011;59403;47.456;19.120;2023-02-26T03:30:37;6.30;;;3.80;;
71566;SDS011;59403;47.456;19.120;2023-02-26T03:33:09;6.40;;;3.47;;
71566;SDS011;59403;47.456;19.120;2023-02-26T03:35:43;6.20;;;3.70;;
71566;SDS011;59403;47.456;19.120;2023-02-26T03:38:17;5.60;;;3.28;;
71566;SDS011;59403;47.456;19.120;2023-02-26T03:40:51;6.53;;;3.20;;
71566;SDS011;59403;47.456;19.120;2023-02-26T03:43:22;7.03;;;3.47;;
71566;SDS011;59403;47.456;19.120;2023-02-26T03:45:56;5.68;;;3.75;;
71566;SDS011;59403;47.456;19.120;2023-02-26T03:48:29;5.65;;;3.40;;
71566;SDS011;59403;47.456;19.120;2023-02-26T03:51:00;5.57;;;3.58;;
71566;SDS011;59403;47.456;19.120;2023-02-26T03:53:30;6.40;;;3.77;;
71566;SDS011;59403;47.456;19.120;2023-02-26T03:56:02;8.10;;;4.07;;
71566;SDS011;59403;47.456;19.120;2023-02-26T03:58:31;8.02;;;4.18;;
71566;SDS011;59403;47.456;19.120;2023-02-26T04:01:00;6.32;;;3.67;;
71566;SDS011;59403;47.456;19.120;2023-02-26T04:03:32;6.78;;;4.28;;
71566;SDS011;59403;47.456;19.120;2023-02-26T04:06:05;8.13;;;4.60;;
71566;SDS011;59403;47.456;19.120;2023-02-26T04:08:32;8.77;;;4.97;;
71566;SDS011;59403;47.456;19.120;2023-02-26T04:11:02;7.70;;;5.22;;
71566;SDS011;59403;47.456;19.120;2023-02-26T04:13:31;7.62;;;4.62;;
71566;SDS011;59403;47.456;19.120;2023-02-26T04:15:58;7.75;;;4.82;;
71566;SDS011;59403;47.456;19.120;2023-02-26T04:18:25;5.73;;;3.33;;
71566;SDS011;59403;47.456;19.120;2023-02-26T04:20:54;6.53;;;3.90;;
71566;SDS011;59403;47.456;19.120;2023-02-26T04:23:21;8.98;;;5.75;;
71566;SDS011;59403;47.456;19.120;2023-02-26T04:25:47;10.55;;;5.60;;
71566;SDS011;59403;47.456;19.120;2023-02-26T04:28:14;13.57;;;7.70;;
71566;SDS011;59403;47.456;19.120;2023-02-26T04:30:42;17.40;;;8.80;;
71566;SDS011;59403;47.456;19.120;2023-02-26T04:33:09;9.07;;;5.53;;
71566;SDS011;59403;47.456;19.120;2023-02-26T04:35:36;7.82;;;4.95;;
71566;SDS011;59403;47.456;19.120;2023-02-26T04:38:04;6.03;;;3.70;;
71566;SDS011;59403;47.456;19.120;2023-02-26T04:40:31;6.70;;;4.65;;
71566;SDS011;59403;47.456;19.120;2023-02-26T04:42:58;8.50;;;5.30;;
71566;SDS011;59403;47.456;19.120;2023-02-26T04:45:25;9.60;;;5.87;;
71566;SDS011;59403;47.456;19.120;2023-02-26T04:47:52;7.12;;;4.78;;
71566;SDS011;59403;47.456;19.120;2023-02-26T04:50:19;6.40;;;3.78;;
71566;SDS011;59403;47.456;19.120;2023-02-26T04:52:46;7.50;;;3.70;;
71566;SDS011;59403;47.456;19.120;2023-02-26T04:55:14;6.20;;;3.80;;
71566;SDS011;59403;47.456;19.120;2023-02-26T04:57:41;7.40;;;4.37;;
71566;SDS011;59403;47.456;19.120;2023-02-26T05:00:09;7.65;;;4.22;;
71566;SDS011;59403;47.456;19.120;2023-02-26T05:02:36;8.15;;;4.32;;
71566;SDS011;59403;47.456;19.120;2023-02-26T05:05:03;8.30;;;5.12;;
71566;SDS011;59403;47.456;19.120;2023-02-26T05:07:31;10.57;;;6.13;;
71566;SDS011;59403;47.456;19.120;2023-02-26T05:09:58;10.57;;;5.57;;
71566;SDS011;59403;47.456;19.120;2023-02-26T05:12:26;11.15;;;6.03;;
71566;SDS011;59403;47.456;19.120;2023-02-26T05:14:53;11.95;;;7.00;;
71566;SDS011;59403;47.456;19.120;2023-02-26T05:17:20;9.73;;;5.35;;
71566;SDS011;59403;47.456;19.120;2023-02-26T05:19:47;6.03;;;3.90;;
71566;SDS011;59403;47.456;19.120;2023-02-26T05:22:14;7.10;;;4.00;;
71566;SDS011;59403;47.456;19.120;2023-02-26T05:24:41;6.70;;;4.12;;
71566;SDS011;59403;47.456;19.120;2023-02-26T05:27:10;7.70;;;4.07;;
71566;SDS011;59403;47.456;19.120;2023-02-26T05:29:38;6.40;;;3.87;;
71566;SDS011;59403;47.456;19.120;2023-02-26T05:32:09;7.50;;;4.10;;
71566;SDS011;59403;47.456;19.120;2023-02-26T05:34:36;7.25;;;3.70;;
71566;SDS011;59403;47.456;19.120;2023-02-26T05:37:03;6.35;;;3.72;;
71566;SDS011;59403;47.456;19.120;2023-02-26T05:39:29;6.45;;;3.50;;
71566;SDS011;59403;47.456;19.120;2023-02-26T05:41:56;7.62;;;4.35;;
71566;SDS011;59403;47.456;19.120;2023-02-26T05:44:23;7.53;;;4.40;;
71566;SDS011;59403;47.456;19.120;2023-02-26T05:46:52;7.68;;;3.70;;
71566;SDS011;59403;47.456;19.120;2023-02-26T05:49:19;7.00;;;4.37;;
71566;SDS011;59403;47.456;19.120;2023-02-26T05:51:46;6.28;;;3.47;;
71566;SDS011;59403;47.456;19.120;2023-02-26T05:54:13;8.38;;;4.97;;
71566;SDS011;59403;47.456;19.120;2023-02-26T05:56:40;7.63;;;4.83;;
71566;SDS011;59403;47.456;19.120;2023-02-26T05:59:07;8.05;;;5.25;;
71566;SDS011;59403;47.456;19.120;2023-02-26T06:01:34;8.18;;;4.78;;
71566;SDS011;59403;47.456;19.120;2023-02-26T06:04:04;7.62;;;3.90;;
71566;SDS011;59403;47.456;19.120;2023-02-26T06:06:31;8.18;;;4.90;;
71566;SDS011;59403;47.456;19.120;2023-02-26T06:08:58;9.83;;;5.47;;
71566;SDS011;59403;47.456;19.120;2023-02-26T06:11:26;7.15;;;4.68;;
71566;SDS011;59403;47.456;19.120;2023-02-26T06:13:53;10.88;;;5.82;;
71566;SDS011;59403;47.456;19.120;2023-02-26T06:16:20;8.57;;;4.87;;
71566;SDS011;59403;47.456;19.120;2023-02-26T06:18:48;6.28;;;4.20;;
71566;SDS011;59403;47.456;19.120;2023-02-26T06:21:16;6.80;;;4.27;;
71566;SDS011;59403;47.456;19.120;2023-02-26T06:23:44;7.37;;;3.75;;
71566;SDS011;59403;47.456;19.120;2023-02-26T06:26:11;6.82;;;4.65;;
71566;SDS011;59403;47.456;19.120;2023-02-26T06:28:38;7.47;;;4.12;;
71566;SDS011;59403;47.456;19.120;2023-02-26T06:31:04;6.20;;;3.60;;
71566;SDS011;59403;47.456;19.120;2023-02-26T06:33:31;7.03;;;4.20;;
71566;SDS011;59403;47.456;19.120;2023-02-26T06:35:58;5.65;;;3.80;;
71566;SDS011;59403;47.456;19.120;2023-02-26T06:38:27;6.20;;;3.72;;
71566;SDS011;59403;47.456;19.120;2023-02-26T06:40:54;6.32;;;3.28;;
71566;SDS011;59403;47.456;19.120;2023-02-26T06:43:21;6.18;;;4.05;;
71566;SDS011;59403;47.456;19.120;2023-02-26T06:45:48;7.77;;;4.10;;
71566;SDS011;59403;47.456;19.120;2023-02-26T06:48:15;6.53;;;3.87;;
71566;SDS011;59403;47.456;19.120;2023-02-26T06:50:41;6.55;;;4.12;;
71566;SDS011;59403;47.456;19.120;2023-02-26T06:53:08;7.03;;;3.78;;
71566;SDS011;59403;47.456;19.120;2023-02-26T06:55:40;8.25;;;4.32;;
71566;SDS011;59403;47.456;19.120;2023-02-26T06:58:09;7.17;;;4.30;;
71566;SDS011;59403;47.456;19.120;2023-02-26T07:00:36;7.50;;;4.20;;
71566;SDS011;59403;47.456;19.120;2023-02-26T07:03:04;6.95;;;4.62;;
71566;SDS011;59403;47.456;19.120;2023-02-26T07:05:31;7.78;;;4.57;;
71566;SDS011;59403;47.456;19.120;2023-02-26T07:07:58;7.97;;;5.07;;
71566;SDS011;59403;47.456;19.120;2023-02-26T07:10:25;7.93;;;4.50;;
71566;SDS011;59403;47.456;19.120;2023-02-26T07:12:53;6.95;;;4.30;;
71566;SDS011;59403;47.456;19.120;2023-02-26T07:15:20;7.57;;;4.70;;
71566;SDS011;59403;47.456;19.120;2023-02-26T07:17:50;7.15;;;4.62;;
71566;SDS011;59403;47.456;19.120;2023-02-26T07:20:17;6.75;;;4.57;;
71566;SDS011;59403;47.456;19.120;2023-02-26T07:22:45;6.90;;;4.33;;
71566;SDS011;59403;47.456;19.120;2023-02-26T07:25:11;7.10;;;4.62;;
71566;SDS011;59403;47.456;19.120;2023-02-26T07:27:39;7.62;;;5.00;;
71566;SDS011;59403;47.456;19.120;2023-02-26T07:30:08;8.43;;;4.80;;
71566;SDS011;59403;47.456;19.120;2023-02-26T07:32:35;7.05;;;4.30;;
71566;SDS011;59403;47.456;19.120;2023-02-26T07:35:02;7.23;;;4.50;;
71566;SDS011;59403;47.456;19.120;2023-02-26T07:37:30;6.90;;;4.35;;
71566;SDS011;59403;47.456;19.120;2023-02-26T07:39:57;7.12;;;5.05;;
71566;SDS011;59403;47.456;19.120;2023-02-26T07:42:23;7.12;;;4.05;;
71566;SDS011;59403;47.456;19.120;2023-02-26T07:44:50;7.25;;;4.85;;
71566;SDS011;59403;47.456;19.120;2023-02-26T07:47:19;8.10;;;4.83;;
71566;SDS011;59403;47.456;19.120;2023-02-26T07:49:45;6.62;;;4.30;;
71566;SDS011;59403;47.456;19.120;2023-02-26T07:52:12;5.93;;;4.25;;
71566;SDS011;59403;47.456;19.120;2023-02-26T07:54:39;7.20;;;3.85;;
71566;SDS011;59403;47.456;19.120;2023-02-26T07:57:06;6.12;;;4.18;;
71566;SDS011;59403;47.456;19.120;2023-02-26T07:59:33;5.97;;;3.43;;
71566;SDS011;59403;47.456;19.120;2023-02-26T08:02:01;6.12;;;3.80;;
71566;SDS011;59403;47.456;19.120;2023-02-26T08:04:29;5.60;;;3.55;;
71566;SDS011;59403;47.456;19.120;2023-02-26T08:06:57;5.70;;;3.65;;
71566;SDS011;59403;47.456;19.120;2023-02-26T08:09:25;5.32;;;3.40;;
71566;SDS011;59403;47.456;19.120;2023-02-26T08:11:52;6.10;;;3.30;;
71566;SDS011;59403;47.456;19.120;2023-02-26T08:14:19;5.18;;;3.40;;
71566;SDS011;59403;47.456;19.120;2023-02-26T08:16:46;6.43;;;3.78;;
71566;SDS011;59403;47.456;19.120;2023-02-26T08:19:13;5.62;;;3.17;;
71566;SDS011;59403;47.456;19.120;2023-02-26T08:21:41;6.00;;;3.60;;
71566;SDS011;59403;47.456;19.120;2023-02-26T08:24:09;6.03;;;3.33;;
71566;SDS011;59403;47.456;19.120;2023-02-26T08:26:37;7.03;;;4.03;;
71566;SDS011;59403;47.456;19.120;2023-02-26T08:29:04;6.85;;;3.87;;
71566;SDS011;59403;47.456;19.120;2023-02-26T08:31:32;5.68;;;3.62;;
71566;SDS011;59403;47.456;19.120;2023-02-26T08:33:59;6.78;;;4.12;;
71566;SDS011;59403;47.456;19.120;2023-02-26T08:36:26;6.37;;;3.83;;
71566;SDS011;59403;47.456;19.120;2023-02-26T08:38:55;6.47;;;3.72;;
71566;SDS011;59403;47.456;19.120;2023-02-26T08:41:22;7.10;;;4.30;;
71566;SDS011;59403;47.456;19.120;2023-02-26T08:43:51;6.25;;;3.83;;
71566;SDS011;59403;47.456;19.120;2023-02-26T08:46:18;7.18;;;4.55;;
71566;SDS011;59403;47.456;19.120;2023-02-26T08:48:45;8.20;;;4.40;;
71566;SDS011;59403;47.456;19.120;2023-02-26T08:51:13;6.62;;;3.90;;
71566;SDS011;59403;47.456;19.120;2023-02-26T08:53:40;6.78;;;4.62;;
71566;SDS011;59403;47.456;19.120;2023-02-26T08:56:10;7.60;;;4.82;;
71566;SDS011;59403;47.456;19.120;2023-02-26T08:58:37;7.00;;;4.78;;
71566;SDS011;59403;47.456;19.120;2023-02-26T09:01:04;7.87;;;4.47;;
71566;SDS011;59403;47.456;19.120;2023-02-26T09:03:31;7.60;;;4.40;;
71566;SDS011;59403;47.456;19.120;2023-02-26T09:05:58;9.55;;;5.15;;
71566;SDS011;59403;47.456;19.120;2023-02-26T09:08:25;7.45;;;4.70;;
71566;SDS011;59403;47.456;19.120;2023-02-26T09:11:03;7.75;;;5.07;;
71566;SDS011;59403;47.456;19.120;2023-02-26T09:13:35;7.87;;;4.00;;
71566;SDS011;59403;47.456;19.120;2023-02-26T09:16:03;5.80;;;3.85;;
71566;SDS011;59403;47.456;19.120;2023-02-26T09:18:30;7.43;;;4.60;;
71566;SDS011;59403;47.456;19.120;2023-02-26T09:20:57;8.90;;;4.30;;
71566;SDS011;59403;47.456;19.120;2023-02-26T09:23:24;9.00;;;4.70;;
71566;SDS011;59403;47.456;19.120;2023-02-26T09:25:52;7.30;;;4.23;;
71566;SDS011;59403;47.456;19.120;2023-02-26T09:28:20;7.05;;;4.12;;
71566;SDS011;59403;47.456;19.120;2023-02-26T09:30:49;6.10;;;4.05;;
71566;SDS011;59403;47.456;19.120;2023-02-26T09:33:16;5.95;;;4.10;;
71566;SDS011;59403;47.456;19.120;2023-02-26T09:35:43;7.53;;;4.53;;
71566;SDS011;59403;47.456;19.120;2023-02-26T09:38:13;8.57;;;4.50;;
71566;SDS011;59403;47.456;19.120;2023-02-26T09:40:41;6.82;;;3.83;;
71566;SDS011;59403;47.456;19.120;2023-02-26T09:43:16;8.57;;;4.70;;
71566;SDS011;59403;47.456;19.120;2023-02-26T09:46:17;6.72;;;3.85;;
71566;SDS011;59403;47.456;19.120;2023-02-26T09:48:52;7.18;;;4.03;;
71566;SDS011;59403;47.456;19.120;2023-02-26T09:51:28;6.67;;;4.10;;
71566;SDS011;59403;47.456;19.120;2023-02-26T09:53:59;6.00;;;3.60;;
71566;SDS011;59403;47.456;19.120;2023-02-26T09:56:39;4.82;;;3.28;;
71566;SDS011;59403;47.456;19.120;2023-02-26T09:59:07;5.47;;;3.67;;
71566;SDS011;59403;47.456;19.120;2023-02-26T10:01:37;5.68;;;3.50;;
71566;SDS011;59403;47.456;19.120;2023-02-26T10:04:12;6.00;;;3.37;;
71566;SDS011;59403;47.456;19.120;2023-02-26T10:06:49;6.57;;;3.42;;
71566;SDS011;59403;47.456;19.120;2023-02-26T10:09:33;5.22;;;3.22;;
71566;SDS011;59403;47.456;19.120;2023-02-26T10:12:15;4.87;;;3.05;;
71566;SDS011;59403;47.456;19.120;2023-02-26T10:14:45;6.53;;;3.33;;
71566;SDS011;59403;47.456;19.120;2023-02-26T10:17:24;5.60;;;3.10;;
71566;SDS011;59403;47.456;19.120;2023-02-26T10:19:58;5.20;;;2.85;;
71566;SDS011;59403;47.456;19.120;2023-02-26T10:22:30;3.60;;;2.80;;
71566;SDS011;59403;47.456;19.120;2023-02-26T10:25:02;4.93;;;3.30;;
71566;SDS011;59403;47.456;19.120;2023-02-26T10:27:41;5.72;;;3.30;;
71566;SDS011;59403;47.456;19.120;2023-02-26T10:30:18;5.30;;;3.40;;
71566;SDS011;59403;47.456;19.120;2023-02-26T10:32:57;6.65;;;3.75;;
71566;SDS011;59403;47.456;19.120;2023-02-26T10:35:31;5.93;;;3.35;;
71566;SDS011;59403;47.456;19.120;2023-02-26T10:38:08;5.22;;;3.20;;
71566;SDS011;59403;47.456;19.120;2023-02-26T10:40:41;6.32;;;3.97;;
71566;SDS011;59403;47.456;19.120;2023-02-26T10:43:11;5.77;;;3.33;;
71566;SDS011;59403;47.456;19.120;2023-02-26T10:45:46;6.03;;;3.97;;
71566;SDS011;59403;47.456;19.120;2023-02-26T10:48:29;5.57;;;3.42;;
71566;SDS011;59403;47.456;19.120;2023-02-26T10:51:12;6.45;;;3.65;;
71566;SDS011;59403;47.456;19.120;2023-02-26T10:53:42;5.80;;;4.03;;
71566;SDS011;59403;47.456;19.120;2023-02-26T10:56:13;8.13;;;4.33;;
71566;SDS011;59403;47.456;19.120;2023-02-26T10:58:43;6.35;;;3.85;;
71566;SDS011;59403;47.456;19.120;2023-02-26T11:01:12;7.12;;;4.60;;
71566;SDS011;59403;47.456;19.120;2023-02-26T11:03:44;6.75;;;4.03;;
71566;SDS011;59403;47.456;19.120;2023-02-26T11:06:16;6.57;;;4.32;;
71566;SDS011;59403;47.456;19.120;2023-02-26T11:08:47;7.93;;;4.20;;
71566;SDS011;59403;47.456;19.120;2023-02-26T11:11:38;6.28;;;4.00;;
71566;SDS011;59403;47.456;19.120;2023-02-26T11:14:08;6.35;;;4.00;;
71566;SDS011;59403;47.456;19.120;2023-02-26T11:16:40;6.47;;;3.95;;
71566;SDS011;59403;47.456;19.120;2023-02-26T11:19:12;6.10;;;3.92;;
71566;SDS011;59403;47.456;19.120;2023-02-26T11:21:42;6.30;;;4.10;;
71566;SDS011;59403;47.456;19.120;2023-02-26T11:24:12;5.78;;;3.90;;
71566;SDS011;59403;47.456;19.120;2023-02-26T11:26:43;6.40;;;4.28;;
71566;SDS011;59403;47.456;19.120;2023-02-26T11:29:16;8.35;;;5.50;;
71566;SDS011;59403;47.456;19.120;2023-02-26T11:31:46;8.48;;;5.65;;
71566;SDS011;59403;47.456;19.120;2023-02-26T11:34:20;8.17;;;4.90;;
71566;SDS011;59403;47.456;19.120;2023-02-26T11:36:48;6.40;;;4.32;;
71566;SDS011;59403;47.456;19.120;2023-02-26T11:39:17;6.93;;;5.07;;
71566;SDS011;59403;47.456;19.120;2023-02-26T11:41:47;8.07;;;5.03;;
71566;SDS011;59403;47.456;19.120;2023-02-26T11:44:17;9.10;;;6.25;;
71566;SDS011;59403;47.456;19.120;2023-02-26T11:46:50;10.07;;;6.03;;
71566;SDS011;59403;47.456;19.120;2023-02-26T11:49:21;9.50;;;6.10;;
71566;SDS011;59403;47.456;19.120;2023-02-26T11:52:15;8.05;;;5.53;;
71566;SDS011;59403;47.456;19.120;2023-02-26T11:54:45;10.75;;;5.87;;
71566;SDS011;59403;47.456;19.120;2023-02-26T11:57:17;9.48;;;6.22;;
71566;SDS011;59403;47.456;19.120;2023-02-26T11:59:47;7.73;;;5.40;;
71566;SDS011;59403;47.456;19.120;2023-02-26T12:02:17;8.32;;;5.22;;
71566;SDS011;59403;47.456;19.120;2023-02-26T12:04:48;8.45;;;5.25;;
71566;SDS011;59403;47.456;19.120;2023-02-26T12:07:18;8.93;;;6.05;;
71566;SDS011;59403;47.456;19.120;2023-02-26T12:09:46;7.82;;;5.57;;
71566;SDS011;59403;47.456;19.120;2023-02-26T12:12:20;7.73;;;4.77;;
71566;SDS011;59403;47.456;19.120;2023-02-26T12:15:05;7.93;;;5.12;;
71566;SDS011;59403;47.456;19.120;2023-02-26T12:17:57;8.65;;;5.78;;
71566;SDS011;59403;47.456;19.120;2023-02-26T12:20:39;8.07;;;5.72;;
71566;SDS011;59403;47.456;19.120;2023-02-26T12:23:20;8.98;;;5.35;;
71566;SDS011;59403;47.456;19.120;2023-02-26T12:26:01;7.93;;;5.43;;
71566;SDS011;59403;47.456;19.120;2023-02-26T12:28:50;10.68;;;6.62;;
71566;SDS011;59403;47.456;19.120;2023-02-26T12:34:45;10.75;;;6.43;;
71566;SDS011;59403;47.456;19.120;2023-02-26T12:37:27;10.20;;;6.22;;
71566;SDS011;59403;47.456;19.120;2023-02-26T12:40:10;10.33;;;6.10;;
71566;SDS011;59403;47.456;19.120;2023-02-26T12:42:56;9.80;;;6.53;;
71566;SDS011;59403;47.456;19.120;2023-02-26T12:45:37;11.18;;;7.32;;
71566;SDS011;59403;47.456;19.120;2023-02-26T12:48:23;9.32;;;6.37;;
71566;SDS011;59403;47.456;19.120;2023-02-26T12:51:16;10.95;;;6.93;;
71566;SDS011;59403;47.456;19.120;2023-02-26T12:54:01;10.70;;;6.60;;
71566;SDS011;59403;47.456;19.120;2023-02-26T12:56:48;10.50;;;6.80;;
71566;SDS011;59403;47.456;19.120;2023-02-26T12:59:57;10.82;;;7.57;;
71566;SDS011;59403;47.456;19.120;2023-02-26T13:05:46;12.23;;;8.45;;
71566;SDS011;59403;47.456;19.120;2023-02-26T13:08:27;10.97;;;7.07;;
71566;SDS011;59403;47.456;19.120;2023-02-26T13:11:05;10.88;;;6.93;;
71566;SDS011;59403;47.456;19.120;2023-02-26T13:13:46;10.38;;;6.75;;
71566;SDS011;59403;47.456;19.120;2023-02-26T13:16:25;11.48;;;6.95;;
71566;SDS011;59403;47.456;19.120;2023-02-26T13:19:05;11.02;;;7.00;;
71566;SDS011;59403;47.456;19.120;2023-02-26T13:21:40;10.33;;;6.37;;
71566;SDS011;59403;47.456;19.120;2023-02-26T13:24:11;11.32;;;6.45;;
71566;SDS011;59403;47.456;19.120;2023-02-26T13:26:44;11.00;;;7.05;;
71566;SDS011;59403;47.456;19.120;2023-02-26T13:29:13;10.27;;;6.32;;
71566;SDS011;59403;47.456;19.120;2023-02-26T13:31:46;9.30;;;6.47;;
71566;SDS011;59403;47.456;19.120;2023-02-26T13:34:18;10.37;;;6.17;;
71566;SDS011;59403;47.456;19.120;2023-02-26T13:36:48;9.93;;;6.10;;
71566;SDS011;59403;47.456;19.120;2023-02-26T13:39:22;11.38;;;6.80;;
71566;SDS011;59403;47.456;19.120;2023-02-26T13:42:00;11.80;;;7.45;;
71566;SDS011;59403;47.456;19.120;2023-02-26T13:44:38;12.77;;;6.80;;
71566;SDS011;59403;47.456;19.120;2023-02-26T13:47:19;11.20;;;6.77;;
71566;SDS011;59403;47.456;19.120;2023-02-26T13:50:14;10.38;;;6.12;;
71566;SDS011;59403;47.456;19.120;2023-02-26T13:52:50;10.65;;;6.60;;
71566;SDS011;59403;47.456;19.120;2023-02-26T13:55:35;9.10;;;5.55;;
71566;SDS011;59403;47.456;19.120;2023-02-26T13:58:24;9.10;;;5.47;;
71566;SDS011;59403;47.456;19.120;2023-02-26T14:01:03;9.00;;;5.40;;
71566;SDS011;59403;47.456;19.120;2023-02-26T14:03:33;8.93;;;5.25;;
71566;SDS011;59403;47.456;19.120;2023-02-26T14:06:09;9.80;;;4.82;;
71566;SDS011;59403;47.456;19.120;2023-02-26T14:09:05;6.80;;;4.60;;
71566;SDS011;59403;47.456;19.120;2023-02-26T14:15:25;10.47;;;4.37;;
71566;SDS011;59403;47.456;19.120;2023-02-26T14:18:00;6.22;;;4.28;;
71566;SDS011;59403;47.456;19.120;2023-02-26T14:20:30;9.50;;;4.70;;
71566;SDS011;59403;47.456;19.120;2023-02-26T14:23:10;7.97;;;4.20;;
71566;SDS011;59403;47.456;19.120;2023-02-26T14:25:46;6.43;;;3.78;;
71566;SDS011;59403;47.456;19.120;2023-02-26T14:28:19;7.27;;;4.80;;
71566;SDS011;59403;47.456;19.120;2023-02-26T14:31:05;8.02;;;4.40;;
71566;SDS011;59403;47.456;19.120;2023-02-26T14:33:39;9.23;;;5.20;;
71566;SDS011;59403;47.456;19.120;2023-02-26T14:36:13;8.02;;;4.55;;
71566;SDS011;59403;47.456;19.120;2023-02-26T14:38:53;8.05;;;4.20;;
71566;SDS011;59403;47.456;19.120;2023-02-26T14:41:25;7.07;;;4.10;;
71566;SDS011;59403;47.456;19.120;2023-02-26T14:43:59;6.85;;;4.45;;
71566;SDS011;59403;47.456;19.120;2023-02-26T14:46:32;6.65;;;3.70;;
71566;SDS011;59403;47.456;19.120;2023-02-26T14:49:00;7.37;;;3.92;;
71566;SDS011;59403;47.456;19.120;2023-02-26T14:51:30;5.45;;;3.67;;
71566;SDS011;59403;47.456;19.120;2023-02-26T14:54:21;7.00;;;3.70;;
71566;SDS011;59403;47.456;19.120;2023-02-26T14:57:05;6.70;;;3.72;;
71566;SDS011;59403;47.456;19.120;2023-02-26T14:59:44;6.20;;;3.75;;
71566;SDS011;59403;47.456;19.120;2023-02-26T15:02:41;6.62;;;3.97;;
71566;SDS011;59403;47.456;19.120;2023-02-26T15:05:25;8.40;;;4.30;;
71566;SDS011;59403;47.456;19.120;2023-02-26T15:14:04;7.50;;;4.40;;
71566;SDS011;59403;47.456;19.120;2023-02-26T15:16:49;9.35;;;4.00;;
71566;SDS011;59403;47.456;19.120;2023-02-26T15:19:29;7.37;;;4.30;;
71566;SDS011;59403;47.456;19.120;2023-02-26T15:22:13;7.07;;;4.00;;
71566;SDS011;59403;47.456;19.120;2023-02-26T15:24:49;8.27;;;4.18;;
71566;SDS011;59403;47.456;19.120;2023-02-26T15:27:29;12.77;;;4.60;;